sensor_id;sensor_type;location;lat;lon;timestamp;P1;durP1;ratioP1;P2;durP2;ratioP2
50319;SDS011;36226;53.464;9.852;2023-04-10T00:00:58;32.65;;;17.42;;
50319;SDS011;36226;53.464;9.852;2023-04-10T00:03:24;33.60;;;17.25;;
50319;SDS011;36226;53.464;9.852;2023-04-10T00:05:50;35.15;;;17.75;;
50319;SDS011;36226;53.464;9.852;2023-04-10T00:08:15;38.95;;;17.83;;
50319;SDS011;36226;53.464;9.852;2023-04-10T00:10:40;32.60;;;17.70;;
50319;SDS011;36226;53.464;9.852;2023-04-10T00:13:06;38.22;;;18.65;;
50319;SDS011;36226;53.464;9.852;2023-04-10T00:15:31;34.45;;;17.42;;
50319;SDS011;36226;53.464;9.852;2023-04-10T00:17:56;36.47;;;18.73;;
50319;SDS011;36226;53.464;9.852;2023-04-10T00:20:22;36.25;;;18.05;;
50319;SDS011;36226;53.464;9.852;2023-04-10T00:22:50;31.52;;;17.27;;
50319;SDS011;36226;53.464;9.852;2023-04-10T00:25:15;35.42;;;18.02;;
50319;SDS011;36226;53.464;9.852;2023-04-10T00:27:41;34.78;;;17.35;;
50319;SDS011;36226;53.464;9.852;2023-04-10T00:30:07;35.30;;;18.67;;
50319;SDS011;36226;53.464;9.852;2023-04-10T00:32:33;32.92;;;16.85;;
50319;SDS011;36226;53.464;9.852;2023-04-10T00:34:58;32.03;;;18.08;;
50319;SDS011;36226;53.464;9.852;2023-04-10T00:37:23;34.15;;;18.17;;
50319;SDS011;36226;53.464;9.852;2023-04-10T00:39:49;36.33;;;18.45;;
50319;SDS011;36226;53.464;9.852;2023-04-10T00:42:14;32.95;;;18.63;;
50319;SDS011;36226;53.464;9.852;2023-04-10T00:44:40;32.28;;;17.75;;
50319;SDS011;36226;53.464;9.852;2023-04-10T00:47:05;41.50;;;19.75;;
50319;SDS011;36226;53.464;9.852;2023-04-10T00:49:31;38.05;;;19.02;;
50319;SDS011;36226;53.464;9.852;2023-04-10T00:51:57;38.55;;;19.48;;
50319;SDS011;36226;53.464;9.852;2023-04-10T00:54:22;38.38;;;19.15;;
50319;SDS011;36226;53.464;9.852;2023-04-10T00:56:48;35.50;;;18.40;;
50319;SDS011;36226;53.464;9.852;2023-04-10T00:59:14;36.28;;;19.60;;
50319;SDS011;36226;53.464;9.852;2023-04-10T01:01:39;34.70;;;17.20;;
50319;SDS011;36226;53.464;9.852;2023-04-10T01:04:05;37.85;;;19.95;;
50319;SDS011;36226;53.464;9.852;2023-04-10T01:17:38;36.58;;;18.92;;
50319;SDS011;36226;53.464;9.852;2023-04-10T01:28:11;41.35;;;18.73;;
50319;SDS011;36226;53.464;9.852;2023-04-10T01:30:46;39.13;;;19.13;;
50319;SDS011;36226;53.464;9.852;2023-04-10T01:33:15;36.58;;;20.02;;
50319;SDS011;36226;53.464;9.852;2023-04-10T01:35:43;36.72;;;19.48;;
50319;SDS011;36226;53.464;9.852;2023-04-10T01:38:11;38.40;;;19.00;;
50319;SDS011;36226;53.464;9.852;2023-04-10T01:40:39;45.35;;;18.98;;
50319;SDS011;36226;53.464;9.852;2023-04-10T01:43:07;36.83;;;18.25;;
50319;SDS011;36226;53.464;9.852;2023-04-10T01:45:33;37.95;;;19.10;;
50319;SDS011;36226;53.464;9.852;2023-04-10T01:47:59;39.85;;;19.63;;
50319;SDS011;36226;53.464;9.852;2023-04-10T01:50:25;37.92;;;18.63;;
50319;SDS011;36226;53.464;9.852;2023-04-10T01:52:53;40.85;;;19.35;;
50319;SDS011;36226;53.464;9.852;2023-04-10T01:55:21;38.03;;;19.27;;
50319;SDS011;36226;53.464;9.852;2023-04-10T01:57:47;39.33;;;19.58;;
50319;SDS011;36226;53.464;9.852;2023-04-10T02:00:13;41.45;;;19.40;;
50319;SDS011;36226;53.464;9.852;2023-04-10T02:02:40;38.58;;;19.50;;
50319;SDS011;36226;53.464;9.852;2023-04-10T02:05:06;40.20;;;18.48;;
50319;SDS011;36226;53.464;9.852;2023-04-10T02:07:37;40.33;;;19.85;;
50319;SDS011;36226;53.464;9.852;2023-04-10T02:15:11;37.80;;;19.13;;
50319;SDS011;36226;53.464;9.852;2023-04-10T02:17:37;39.47;;;20.13;;
50319;SDS011;36226;53.464;9.852;2023-04-10T02:20:04;42.03;;;19.90;;
50319;SDS011;36226;53.464;9.852;2023-04-10T02:22:31;39.30;;;19.75;;
50319;SDS011;36226;53.464;9.852;2023-04-10T02:24:57;38.40;;;18.63;;
50319;SDS011;36226;53.464;9.852;2023-04-10T02:27:27;37.60;;;17.98;;
50319;SDS011;36226;53.464;9.852;2023-04-10T02:29:54;42.33;;;19.27;;
50319;SDS011;36226;53.464;9.852;2023-04-10T02:32:19;37.80;;;19.10;;
50319;SDS011;36226;53.464;9.852;2023-04-10T02:34:45;40.47;;;19.50;;
50319;SDS011;36226;53.464;9.852;2023-04-10T02:37:10;40.15;;;19.13;;
50319;SDS011;36226;53.464;9.852;2023-04-10T02:39:36;39.22;;;19.55;;
50319;SDS011;36226;53.464;9.852;2023-04-10T02:42:01;41.85;;;19.40;;
50319;SDS011;36226;53.464;9.852;2023-04-10T02:44:26;39.88;;;20.00;;
50319;SDS011;36226;53.464;9.852;2023-04-10T02:46:52;41.58;;;19.80;;
50319;SDS011;36226;53.464;9.852;2023-04-10T02:49:17;43.50;;;19.90;;
50319;SDS011;36226;53.464;9.852;2023-04-10T02:51:42;39.05;;;19.80;;
50319;SDS011;36226;53.464;9.852;2023-04-10T02:54:08;37.50;;;18.67;;
50319;SDS011;36226;53.464;9.852;2023-04-10T02:56:33;37.05;;;19.42;;
50319;SDS011;36226;53.464;9.852;2023-04-10T02:58:59;39.13;;;18.65;;
50319;SDS011;36226;53.464;9.852;2023-04-10T03:01:24;37.92;;;19.35;;
50319;SDS011;36226;53.464;9.852;2023-04-10T03:03:50;40.85;;;19.38;;
50319;SDS011;36226;53.464;9.852;2023-04-10T03:06:15;42.42;;;20.33;;
50319;SDS011;36226;53.464;9.852;2023-04-10T03:08:41;42.83;;;20.00;;
50319;SDS011;36226;53.464;9.852;2023-04-10T03:11:06;38.00;;;19.15;;
50319;SDS011;36226;53.464;9.852;2023-04-10T03:13:33;36.47;;;18.45;;
50319;SDS011;36226;53.464;9.852;2023-04-10T03:15:58;44.85;;;20.75;;
50319;SDS011;36226;53.464;9.852;2023-04-10T03:18:23;42.28;;;19.98;;
50319;SDS011;36226;53.464;9.852;2023-04-10T03:20:49;34.22;;;17.95;;
50319;SDS011;36226;53.464;9.852;2023-04-10T03:23:14;39.75;;;19.80;;
50319;SDS011;36226;53.464;9.852;2023-04-10T03:25:40;38.13;;;19.42;;
50319;SDS011;36226;53.464;9.852;2023-04-10T03:28:06;41.20;;;19.55;;
50319;SDS011;36226;53.464;9.852;2023-04-10T03:30:31;38.03;;;16.35;;
50319;SDS011;36226;53.464;9.852;2023-04-10T03:32:58;39.15;;;19.15;;
50319;SDS011;36226;53.464;9.852;2023-04-10T03:35:24;38.63;;;19.33;;
50319;SDS011;36226;53.464;9.852;2023-04-10T03:37:49;37.90;;;17.85;;
50319;SDS011;36226;53.464;9.852;2023-04-10T03:40:15;37.08;;;19.58;;
50319;SDS011;36226;53.464;9.852;2023-04-10T03:42:40;38.67;;;19.05;;
50319;SDS011;36226;53.464;9.852;2023-04-10T03:45:05;39.85;;;17.70;;
50319;SDS011;36226;53.464;9.852;2023-04-10T03:47:32;42.08;;;18.98;;
50319;SDS011;36226;53.464;9.852;2023-04-10T03:49:57;38.45;;;18.42;;
50319;SDS011;36226;53.464;9.852;2023-04-10T03:52:24;37.03;;;17.38;;
50319;SDS011;36226;53.464;9.852;2023-04-10T03:54:50;36.20;;;18.60;;
50319;SDS011;36226;53.464;9.852;2023-04-10T03:57:16;41.45;;;18.80;;
50319;SDS011;36226;53.464;9.852;2023-04-10T03:59:42;39.67;;;18.52;;
50319;SDS011;36226;53.464;9.852;2023-04-10T04:02:08;40.25;;;18.85;;
50319;SDS011;36226;53.464;9.852;2023-04-10T04:04:33;38.40;;;18.35;;
50319;SDS011;36226;53.464;9.852;2023-04-10T04:06:58;36.63;;;17.58;;
50319;SDS011;36226;53.464;9.852;2023-04-10T04:09:24;38.13;;;18.38;;
50319;SDS011;36226;53.464;9.852;2023-04-10T04:11:49;35.45;;;17.90;;
50319;SDS011;36226;53.464;9.852;2023-04-10T04:14:14;37.08;;;17.50;;
50319;SDS011;36226;53.464;9.852;2023-04-10T04:16:40;38.97;;;18.45;;
50319;SDS011;36226;53.464;9.852;2023-04-10T04:19:05;35.92;;;17.40;;
50319;SDS011;36226;53.464;9.852;2023-04-10T04:21:30;38.88;;;17.27;;
50319;SDS011;36226;53.464;9.852;2023-04-10T04:23:56;32.45;;;16.35;;
50319;SDS011;36226;53.464;9.852;2023-04-10T04:26:21;35.55;;;17.40;;
50319;SDS011;36226;53.464;9.852;2023-04-10T04:28:48;37.92;;;18.92;;
50319;SDS011;36226;53.464;9.852;2023-04-10T04:31:14;37.65;;;18.17;;
50319;SDS011;36226;53.464;9.852;2023-04-10T04:33:40;33.80;;;18.00;;
50319;SDS011;36226;53.464;9.852;2023-04-10T04:36:05;37.63;;;18.17;;
50319;SDS011;36226;53.464;9.852;2023-04-10T04:38:31;35.10;;;18.25;;
50319;SDS011;36226;53.464;9.852;2023-04-10T04:40:56;38.33;;;18.58;;
50319;SDS011;36226;53.464;9.852;2023-04-10T04:43:22;36.45;;;18.35;;
50319;SDS011;36226;53.464;9.852;2023-04-10T04:45:47;35.20;;;18.00;;
50319;SDS011;36226;53.464;9.852;2023-04-10T04:48:12;40.42;;;18.67;;
50319;SDS011;36226;53.464;9.852;2023-04-10T04:50:41;36.03;;;18.63;;
50319;SDS011;36226;53.464;9.852;2023-04-10T04:53:07;34.10;;;15.80;;
50319;SDS011;36226;53.464;9.852;2023-04-10T04:55:33;35.72;;;17.45;;
50319;SDS011;36226;53.464;9.852;2023-04-10T04:57:58;35.40;;;18.05;;
50319;SDS011;36226;53.464;9.852;2023-04-10T05:00:23;36.40;;;17.77;;
50319;SDS011;36226;53.464;9.852;2023-04-10T05:02:49;31.98;;;16.08;;
50319;SDS011;36226;53.464;9.852;2023-04-10T05:05:14;34.55;;;17.33;;
50319;SDS011;36226;53.464;9.852;2023-04-10T05:07:40;33.20;;;16.65;;
50319;SDS011;36226;53.464;9.852;2023-04-10T05:10:05;38.30;;;17.08;;
50319;SDS011;36226;53.464;9.852;2023-04-10T05:12:32;34.72;;;17.92;;
50319;SDS011;36226;53.464;9.852;2023-04-10T05:14:57;35.33;;;17.02;;
50319;SDS011;36226;53.464;9.852;2023-04-10T05:17:22;34.22;;;17.55;;
50319;SDS011;36226;53.464;9.852;2023-04-10T05:19:48;35.92;;;17.63;;
50319;SDS011;36226;53.464;9.852;2023-04-10T05:22:13;35.83;;;17.05;;
50319;SDS011;36226;53.464;9.852;2023-04-10T05:24:38;33.10;;;17.23;;
50319;SDS011;36226;53.464;9.852;2023-04-10T05:27:04;27.58;;;14.85;;
50319;SDS011;36226;53.464;9.852;2023-04-10T05:29:29;32.50;;;16.45;;
50319;SDS011;36226;53.464;9.852;2023-04-10T05:31:55;32.65;;;16.27;;
50319;SDS011;36226;53.464;9.852;2023-04-10T05:34:20;32.55;;;17.05;;
50319;SDS011;36226;53.464;9.852;2023-04-10T05:36:45;32.95;;;15.88;;
50319;SDS011;36226;53.464;9.852;2023-04-10T05:39:11;28.08;;;15.30;;
50319;SDS011;36226;53.464;9.852;2023-04-10T05:41:37;27.77;;;13.98;;
50319;SDS011;36226;53.464;9.852;2023-04-10T05:44:02;33.50;;;15.75;;
50319;SDS011;36226;53.464;9.852;2023-04-10T05:46:28;30.92;;;16.00;;
50319;SDS011;36226;53.464;9.852;2023-04-10T05:48:53;29.67;;;15.40;;
50319;SDS011;36226;53.464;9.852;2023-04-10T05:51:18;28.98;;;15.27;;
50319;SDS011;36226;53.464;9.852;2023-04-10T05:53:44;29.13;;;15.27;;
50319;SDS011;36226;53.464;9.852;2023-04-10T05:56:09;32.67;;;16.35;;
50319;SDS011;36226;53.464;9.852;2023-04-10T05:58:34;28.90;;;15.57;;
50319;SDS011;36226;53.464;9.852;2023-04-10T06:01:00;31.15;;;15.75;;
50319;SDS011;36226;53.464;9.852;2023-04-10T06:03:25;29.20;;;15.13;;
50319;SDS011;36226;53.464;9.852;2023-04-10T06:05:51;30.27;;;15.50;;
50319;SDS011;36226;53.464;9.852;2023-04-10T06:08:17;29.15;;;15.23;;
50319;SDS011;36226;53.464;9.852;2023-04-10T06:10:44;26.73;;;14.85;;
50319;SDS011;36226;53.464;9.852;2023-04-10T06:13:10;28.98;;;15.80;;
50319;SDS011;36226;53.464;9.852;2023-04-10T06:15:36;31.95;;;15.75;;
50319;SDS011;36226;53.464;9.852;2023-04-10T06:18:01;28.33;;;15.15;;
50319;SDS011;36226;53.464;9.852;2023-04-10T06:20:26;28.38;;;14.50;;
50319;SDS011;36226;53.464;9.852;2023-04-10T06:22:52;27.08;;;15.68;;
50319;SDS011;36226;53.464;9.852;2023-04-10T06:25:18;27.13;;;14.82;;
50319;SDS011;36226;53.464;9.852;2023-04-10T06:27:43;28.67;;;14.05;;
50319;SDS011;36226;53.464;9.852;2023-04-10T06:30:08;29.55;;;15.38;;
50319;SDS011;36226;53.464;9.852;2023-04-10T06:32:34;27.20;;;15.02;;
50319;SDS011;36226;53.464;9.852;2023-04-10T06:35:00;26.77;;;14.48;;
50319;SDS011;36226;53.464;9.852;2023-04-10T06:37:26;27.42;;;14.63;;
50319;SDS011;36226;53.464;9.852;2023-04-10T06:40:00;28.73;;;15.43;;
50319;SDS011;36226;53.464;9.852;2023-04-10T06:42:26;26.20;;;14.82;;
50319;SDS011;36226;53.464;9.852;2023-04-10T06:44:51;26.15;;;14.43;;
50319;SDS011;36226;53.464;9.852;2023-04-10T06:47:17;27.77;;;14.45;;
50319;SDS011;36226;53.464;9.852;2023-04-10T06:49:42;28.58;;;14.50;;
50319;SDS011;36226;53.464;9.852;2023-04-10T06:52:07;27.73;;;14.93;;
50319;SDS011;36226;53.464;9.852;2023-04-10T06:54:35;25.83;;;13.75;;
50319;SDS011;36226;53.464;9.852;2023-04-10T06:57:00;24.63;;;13.63;;
50319;SDS011;36226;53.464;9.852;2023-04-10T06:59:25;25.35;;;14.40;;
50319;SDS011;36226;53.464;9.852;2023-04-10T07:01:51;26.55;;;14.25;;
50319;SDS011;36226;53.464;9.852;2023-04-10T07:04:16;25.58;;;13.50;;
50319;SDS011;36226;53.464;9.852;2023-04-10T07:06:41;24.98;;;13.23;;
50319;SDS011;36226;53.464;9.852;2023-04-10T07:09:07;24.33;;;13.65;;
50319;SDS011;36226;53.464;9.852;2023-04-10T07:11:32;24.75;;;13.13;;
50319;SDS011;36226;53.464;9.852;2023-04-10T07:13:57;23.65;;;12.98;;
50319;SDS011;36226;53.464;9.852;2023-04-10T07:16:23;20.88;;;13.45;;
50319;SDS011;36226;53.464;9.852;2023-04-10T07:18:49;24.75;;;13.65;;
50319;SDS011;36226;53.464;9.852;2023-04-10T07:21:14;23.45;;;12.85;;
50319;SDS011;36226;53.464;9.852;2023-04-10T07:23:39;21.83;;;12.75;;
50319;SDS011;36226;53.464;9.852;2023-04-10T07:26:05;23.33;;;12.88;;
50319;SDS011;36226;53.464;9.852;2023-04-10T07:28:30;22.40;;;12.88;;
50319;SDS011;36226;53.464;9.852;2023-04-10T07:30:57;21.35;;;12.88;;
50319;SDS011;36226;53.464;9.852;2023-04-10T07:33:22;23.80;;;11.65;;
50319;SDS011;36226;53.464;9.852;2023-04-10T07:35:48;20.58;;;12.45;;
50319;SDS011;36226;53.464;9.852;2023-04-10T07:38:13;21.08;;;12.20;;
50319;SDS011;36226;53.464;9.852;2023-04-10T07:40:38;18.27;;;11.63;;
50319;SDS011;36226;53.464;9.852;2023-04-10T07:43:04;19.55;;;11.68;;
50319;SDS011;36226;53.464;9.852;2023-04-10T07:45:29;18.08;;;11.38;;
50319;SDS011;36226;53.464;9.852;2023-04-10T07:47:55;17.60;;;11.00;;
50319;SDS011;36226;53.464;9.852;2023-04-10T07:50:22;20.55;;;11.15;;
50319;SDS011;36226;53.464;9.852;2023-04-10T07:52:47;21.33;;;11.40;;
50319;SDS011;36226;53.464;9.852;2023-04-10T07:55:13;17.42;;;10.88;;
50319;SDS011;36226;53.464;9.852;2023-04-10T07:57:39;18.05;;;10.85;;
50319;SDS011;36226;53.464;9.852;2023-04-10T08:00:05;18.02;;;10.93;;
50319;SDS011;36226;53.464;9.852;2023-04-10T08:02:31;17.13;;;11.13;;
50319;SDS011;36226;53.464;9.852;2023-04-10T08:04:56;19.67;;;10.88;;
50319;SDS011;36226;53.464;9.852;2023-04-10T08:07:22;15.80;;;10.00;;
50319;SDS011;36226;53.464;9.852;2023-04-10T08:09:47;16.20;;;10.57;;
50319;SDS011;36226;53.464;9.852;2023-04-10T08:12:12;17.05;;;10.23;;
50319;SDS011;36226;53.464;9.852;2023-04-10T08:14:38;15.77;;;10.40;;
50319;SDS011;36226;53.464;9.852;2023-04-10T08:17:03;15.82;;;9.88;;
50319;SDS011;36226;53.464;9.852;2023-04-10T08:19:29;16.10;;;10.40;;
50319;SDS011;36226;53.464;9.852;2023-04-10T08:21:54;16.00;;;10.00;;
50319;SDS011;36226;53.464;9.852;2023-04-10T08:24:20;15.48;;;10.00;;
50319;SDS011;36226;53.464;9.852;2023-04-10T08:26:47;14.80;;;9.68;;
50319;SDS011;36226;53.464;9.852;2023-04-10T08:29:12;13.52;;;9.27;;
50319;SDS011;36226;53.464;9.852;2023-04-10T08:31:38;14.02;;;9.50;;
50319;SDS011;36226;53.464;9.852;2023-04-10T08:34:03;13.70;;;9.00;;
50319;SDS011;36226;53.464;9.852;2023-04-10T08:36:29;14.60;;;9.43;;
50319;SDS011;36226;53.464;9.852;2023-04-10T08:38:55;15.27;;;9.80;;
50319;SDS011;36226;53.464;9.852;2023-04-10T08:41:20;12.55;;;8.45;;
50319;SDS011;36226;53.464;9.852;2023-04-10T08:43:46;12.13;;;8.90;;
50319;SDS011;36226;53.464;9.852;2023-04-10T08:46:13;13.10;;;9.05;;
50319;SDS011;36226;53.464;9.852;2023-04-10T08:48:44;12.82;;;8.20;;
50319;SDS011;36226;53.464;9.852;2023-04-10T08:51:16;12.73;;;8.40;;
50319;SDS011;36226;53.464;9.852;2023-04-10T08:53:43;11.27;;;7.53;;
50319;SDS011;36226;53.464;9.852;2023-04-10T08:56:13;10.25;;;7.63;;
50319;SDS011;36226;53.464;9.852;2023-04-10T08:58:40;11.45;;;7.20;;
50319;SDS011;36226;53.464;9.852;2023-04-10T09:01:07;9.95;;;7.20;;
50319;SDS011;36226;53.464;9.852;2023-04-10T09:03:33;10.05;;;7.53;;
50319;SDS011;36226;53.464;9.852;2023-04-10T09:06:02;10.23;;;7.10;;
50319;SDS011;36226;53.464;9.852;2023-04-10T09:08:28;9.07;;;6.38;;
50319;SDS011;36226;53.464;9.852;2023-04-10T09:10:54;10.32;;;6.60;;
50319;SDS011;36226;53.464;9.852;2023-04-10T09:13:36;9.10;;;6.40;;
50319;SDS011;36226;53.464;9.852;2023-04-10T09:16:03;9.30;;;7.13;;
50319;SDS011;36226;53.464;9.852;2023-04-10T09:19:02;10.57;;;6.70;;
50319;SDS011;36226;53.464;9.852;2023-04-10T09:21:21;9.52;;;6.13;;
50319;SDS011;36226;53.464;9.852;2023-04-10T09:23:47;8.13;;;6.18;;
50319;SDS011;36226;53.464;9.852;2023-04-10T09:26:23;9.43;;;6.60;;
50319;SDS011;36226;53.464;9.852;2023-04-10T09:28:54;9.43;;;6.93;;
50319;SDS011;36226;53.464;9.852;2023-04-10T09:31:29;10.32;;;6.93;;
50319;SDS011;36226;53.464;9.852;2023-04-10T09:36:53;10.30;;;6.60;;
50319;SDS011;36226;53.464;9.852;2023-04-10T09:39:20;10.02;;;7.03;;
50319;SDS011;36226;53.464;9.852;2023-04-10T09:41:46;9.00;;;6.68;;
50319;SDS011;36226;53.464;9.852;2023-04-10T09:44:28;8.57;;;6.57;;
50319;SDS011;36226;53.464;9.852;2023-04-10T09:46:55;9.98;;;6.40;;
50319;SDS011;36226;53.464;9.852;2023-04-10T09:49:21;8.95;;;6.28;;
50319;SDS011;36226;53.464;9.852;2023-04-10T09:51:46;8.35;;;5.88;;
50319;SDS011;36226;53.464;9.852;2023-04-10T09:54:13;8.27;;;6.32;;
50319;SDS011;36226;53.464;9.852;2023-04-10T09:56:39;8.48;;;5.85;;
50319;SDS011;36226;53.464;9.852;2023-04-10T09:59:05;7.38;;;5.68;;
50319;SDS011;36226;53.464;9.852;2023-04-10T10:01:31;7.57;;;5.82;;
50319;SDS011;36226;53.464;9.852;2023-04-10T10:04:02;8.13;;;5.93;;
50319;SDS011;36226;53.464;9.852;2023-04-10T10:06:31;7.95;;;5.60;;
50319;SDS011;36226;53.464;9.852;2023-04-10T10:09:01;8.63;;;6.20;;
50319;SDS011;36226;53.464;9.852;2023-04-10T10:11:28;9.13;;;5.82;;
50319;SDS011;36226;53.464;9.852;2023-04-10T10:13:56;7.32;;;5.13;;
50319;SDS011;36226;53.464;9.852;2023-04-10T10:16:27;7.22;;;5.82;;
50319;SDS011;36226;53.464;9.852;2023-04-10T10:21:34;7.90;;;5.60;;
50319;SDS011;36226;53.464;9.852;2023-04-10T10:24:00;7.70;;;5.82;;
50319;SDS011;36226;53.464;9.852;2023-04-10T10:26:29;6.85;;;5.40;;
50319;SDS011;36226;53.464;9.852;2023-04-10T10:29:00;7.57;;;5.50;;
50319;SDS011;36226;53.464;9.852;2023-04-10T10:31:27;7.75;;;5.72;;
50319;SDS011;36226;53.464;9.852;2023-04-10T10:33:57;8.07;;;5.72;;
50319;SDS011;36226;53.464;9.852;2023-04-10T10:36:28;7.15;;;5.05;;
50319;SDS011;36226;53.464;9.852;2023-04-10T10:41:34;6.10;;;4.85;;
50319;SDS011;36226;53.464;9.852;2023-04-10T10:44:10;8.45;;;4.75;;
50319;SDS011;36226;53.464;9.852;2023-04-10T10:46:48;6.32;;;5.13;;
50319;SDS011;36226;53.464;9.852;2023-04-10T10:49:24;6.40;;;4.47;;
50319;SDS011;36226;53.464;9.852;2023-04-10T10:52:15;6.13;;;5.00;;
50319;SDS011;36226;53.464;9.852;2023-04-10T10:55:23;7.40;;;5.13;;
50319;SDS011;36226;53.464;9.852;2023-04-10T10:57:46;6.18;;;4.82;;
50319;SDS011;36226;53.464;9.852;2023-04-10T11:00:18;6.97;;;5.10;;
50319;SDS011;36226;53.464;9.852;2023-04-10T11:02:52;6.32;;;4.80;;
50319;SDS011;36226;53.464;9.852;2023-04-10T11:11:04;6.40;;;4.80;;
50319;SDS011;36226;53.464;9.852;2023-04-10T11:13:31;5.50;;;4.55;;
50319;SDS011;36226;53.464;9.852;2023-04-10T11:15:58;6.13;;;5.00;;
50319;SDS011;36226;53.464;9.852;2023-04-10T11:21:09;7.63;;;5.15;;
50319;SDS011;36226;53.464;9.852;2023-04-10T11:28:59;4.90;;;3.90;;
50319;SDS011;36226;53.464;9.852;2023-04-10T11:31:36;5.82;;;4.40;;
50319;SDS011;36226;53.464;9.852;2023-04-10T11:34:03;5.30;;;4.05;;
50319;SDS011;36226;53.464;9.852;2023-04-10T11:36:30;7.20;;;4.65;;
50319;SDS011;36226;53.464;9.852;2023-04-10T11:38:57;5.65;;;4.50;;
50319;SDS011;36226;53.464;9.852;2023-04-10T11:41:26;6.25;;;4.68;;
50319;SDS011;36226;53.464;9.852;2023-04-10T11:43:52;5.32;;;4.32;;
50319;SDS011;36226;53.464;9.852;2023-04-10T11:46:18;5.65;;;4.18;;
50319;SDS011;36226;53.464;9.852;2023-04-10T11:48:44;4.85;;;3.58;;
50319;SDS011;36226;53.464;9.852;2023-04-10T11:51:10;5.57;;;4.10;;
50319;SDS011;36226;53.464;9.852;2023-04-10T11:53:37;4.93;;;3.85;;
50319;SDS011;36226;53.464;9.852;2023-04-10T11:56:03;5.25;;;4.05;;
50319;SDS011;36226;53.464;9.852;2023-04-10T11:58:31;6.10;;;4.20;;
50319;SDS011;36226;53.464;9.852;2023-04-10T12:01:01;4.97;;;3.70;;
50319;SDS011;36226;53.464;9.852;2023-04-10T12:06:10;4.90;;;3.90;;
50319;SDS011;36226;53.464;9.852;2023-04-10T12:08:41;4.53;;;3.70;;
50319;SDS011;36226;53.464;9.852;2023-04-10T12:11:17;4.78;;;3.45;;
50319;SDS011;36226;53.464;9.852;2023-04-10T12:13:50;4.85;;;3.85;;
50319;SDS011;36226;53.464;9.852;2023-04-10T12:16:16;4.53;;;3.72;;
50319;SDS011;36226;53.464;9.852;2023-04-10T12:18:42;4.93;;;3.92;;
50319;SDS011;36226;53.464;9.852;2023-04-10T12:21:09;4.32;;;3.45;;
50319;SDS011;36226;53.464;9.852;2023-04-10T12:23:35;6.00;;;3.65;;
50319;SDS011;36226;53.464;9.852;2023-04-10T12:26:06;4.32;;;3.17;;
50319;SDS011;36226;53.464;9.852;2023-04-10T12:28:40;4.25;;;3.50;;
50319;SDS011;36226;53.464;9.852;2023-04-10T12:31:06;4.45;;;3.33;;
50319;SDS011;36226;53.464;9.852;2023-04-10T12:33:32;5.93;;;3.10;;
50319;SDS011;36226;53.464;9.852;2023-04-10T12:35:57;3.72;;;3.22;;
50319;SDS011;36226;53.464;9.852;2023-04-10T12:38:36;5.15;;;3.10;;
50319;SDS011;36226;53.464;9.852;2023-04-10T12:41:06;4.65;;;2.90;;
50319;SDS011;36226;53.464;9.852;2023-04-10T12:43:41;4.22;;;2.90;;
50319;SDS011;36226;53.464;9.852;2023-04-10T12:46:09;8.23;;;3.08;;
50319;SDS011;36226;53.464;9.852;2023-04-10T12:48:34;4.90;;;3.22;;
50319;SDS011;36226;53.464;9.852;2023-04-10T12:51:00;9.07;;;3.25;;
50319;SDS011;36226;53.464;9.852;2023-04-10T12:53:26;5.72;;;3.28;;
50319;SDS011;36226;53.464;9.852;2023-04-10T12:55:59;4.38;;;3.28;;
50319;SDS011;36226;53.464;9.852;2023-04-10T12:58:26;4.75;;;3.50;;
50319;SDS011;36226;53.464;9.852;2023-04-10T13:00:52;4.97;;;3.53;;
50319;SDS011;36226;53.464;9.852;2023-04-10T13:03:19;4.28;;;3.08;;
50319;SDS011;36226;53.464;9.852;2023-04-10T13:05:45;8.45;;;3.35;;
50319;SDS011;36226;53.464;9.852;2023-04-10T13:08:11;4.47;;;3.38;;
50319;SDS011;36226;53.464;9.852;2023-04-10T13:10:36;5.35;;;3.10;;
50319;SDS011;36226;53.464;9.852;2023-04-10T13:13:02;4.93;;;3.42;;
50319;SDS011;36226;53.464;9.852;2023-04-10T13:15:28;6.38;;;3.30;;
50319;SDS011;36226;53.464;9.852;2023-04-10T13:17:53;5.28;;;2.85;;
50319;SDS011;36226;53.464;9.852;2023-04-10T13:20:19;3.20;;;2.78;;
50319;SDS011;36226;53.464;9.852;2023-04-10T13:22:45;4.05;;;3.08;;
50319;SDS011;36226;53.464;9.852;2023-04-10T13:25:10;4.45;;;3.13;;
50319;SDS011;36226;53.464;9.852;2023-04-10T13:27:36;4.32;;;3.45;;
50319;SDS011;36226;53.464;9.852;2023-04-10T13:30:01;5.55;;;3.33;;
50319;SDS011;36226;53.464;9.852;2023-04-10T13:32:26;4.57;;;3.67;;
50319;SDS011;36226;53.464;9.852;2023-04-10T13:34:52;5.65;;;3.40;;
50319;SDS011;36226;53.464;9.852;2023-04-10T13:37:18;4.68;;;3.15;;
50319;SDS011;36226;53.464;9.852;2023-04-10T13:39:44;5.93;;;3.53;;
50319;SDS011;36226;53.464;9.852;2023-04-10T13:42:09;5.88;;;3.35;;
50319;SDS011;36226;53.464;9.852;2023-04-10T13:44:35;7.57;;;4.43;;
50319;SDS011;36226;53.464;9.852;2023-04-10T13:47:00;5.32;;;3.58;;
50319;SDS011;36226;53.464;9.852;2023-04-10T13:49:25;4.78;;;3.47;;
50319;SDS011;36226;53.464;9.852;2023-04-10T13:51:54;5.75;;;4.40;;
50319;SDS011;36226;53.464;9.852;2023-04-10T13:54:20;7.18;;;4.10;;
50319;SDS011;36226;53.464;9.852;2023-04-10T13:56:45;6.72;;;4.10;;
50319;SDS011;36226;53.464;9.852;2023-04-10T13:59:11;5.68;;;3.75;;
50319;SDS011;36226;53.464;9.852;2023-04-10T14:01:37;8.15;;;4.32;;
50319;SDS011;36226;53.464;9.852;2023-04-10T14:04:02;5.32;;;3.65;;
50319;SDS011;36226;53.464;9.852;2023-04-10T14:06:28;5.68;;;3.97;;
50319;SDS011;36226;53.464;9.852;2023-04-10T14:08:53;5.18;;;4.00;;
50319;SDS011;36226;53.464;9.852;2023-04-10T14:11:19;5.28;;;3.97;;
50319;SDS011;36226;53.464;9.852;2023-04-10T14:13:44;7.03;;;4.45;;
50319;SDS011;36226;53.464;9.852;2023-04-10T14:16:10;5.53;;;4.07;;
50319;SDS011;36226;53.464;9.852;2023-04-10T14:18:35;6.32;;;4.43;;
50319;SDS011;36226;53.464;9.852;2023-04-10T14:21:01;6.88;;;4.20;;
50319;SDS011;36226;53.464;9.852;2023-04-10T14:23:27;5.78;;;4.28;;
50319;SDS011;36226;53.464;9.852;2023-04-10T14:25:52;6.32;;;4.38;;
50319;SDS011;36226;53.464;9.852;2023-04-10T14:28:18;6.97;;;4.47;;
50319;SDS011;36226;53.464;9.852;2023-04-10T14:30:47;6.10;;;4.40;;
50319;SDS011;36226;53.464;9.852;2023-04-10T14:33:14;7.55;;;4.60;;
50319;SDS011;36226;53.464;9.852;2023-04-10T14:35:40;6.22;;;4.53;;
50319;SDS011;36226;53.464;9.852;2023-04-10T14:38:06;6.38;;;4.55;;
50319;SDS011;36226;53.464;9.852;2023-04-10T14:40:32;8.55;;;4.95;;
50319;SDS011;36226;53.464;9.852;2023-04-10T14:42:57;6.75;;;4.95;;
50319;SDS011;36226;53.464;9.852;2023-04-10T14:45:23;7.13;;;4.97;;
50319;SDS011;36226;53.464;9.852;2023-04-10T14:47:49;6.75;;;5.00;;
50319;SDS011;36226;53.464;9.852;2023-04-10T14:50:15;7.75;;;4.95;;
50319;SDS011;36226;53.464;9.852;2023-04-10T14:52:40;7.55;;;5.30;;
50319;SDS011;36226;53.464;9.852;2023-04-10T14:55:06;7.57;;;5.03;;
50319;SDS011;36226;53.464;9.852;2023-04-10T14:57:31;6.97;;;5.15;;
50319;SDS011;36226;53.464;9.852;2023-04-10T14:59:56;9.43;;;4.85;;
50319;SDS011;36226;53.464;9.852;2023-04-10T15:02:24;7.93;;;5.05;;
50319;SDS011;36226;53.464;9.852;2023-04-10T15:04:49;5.97;;;4.60;;
50319;SDS011;36226;53.464;9.852;2023-04-10T15:07:15;5.57;;;4.38;;
50319;SDS011;36226;53.464;9.852;2023-04-10T15:09:40;6.47;;;4.80;;
50319;SDS011;36226;53.464;9.852;2023-04-10T15:12:07;7.18;;;4.72;;
50319;SDS011;36226;53.464;9.852;2023-04-10T15:14:32;8.25;;;4.60;;
50319;SDS011;36226;53.464;9.852;2023-04-10T15:16:57;6.78;;;4.15;;
50319;SDS011;36226;53.464;9.852;2023-04-10T15:19:23;5.78;;;4.47;;